Time;durP1;ratioP1;P1;durP2;ratioP2;P2;SDS_P1;SDS_P2;PMS_P1;PMS_P2;Temp;Humidity;BMP_temperature;BMP_pressure;BME280_temperature;BME280_humidity;BME280_pressure;Samples;Min_cycle;Max_cycle;Signal;HPM_P1;HPM_P2
2021/06/19 00:01:43;;;;;;;18.88;11.23;;;21.70;99.90;;;;;;5101348;28;20039;-82
2021/06/19 00:04:10;;;;;;;17.60;10.90;;;21.70;99.90;;;;;;5100290;28;20510;-82
2021/06/19 00:06:36;;;;;;;15.88;11.60;;;21.70;99.90;;;;;;5085010;28;20028;-82
2021/06/19 00:09:01;;;;;;;19.27;11.02;;;21.80;99.90;;;;;;5097375;28;20545;-82
2021/06/19 00:11:27;;;;;;;18.48;12.00;;;21.80;99.90;;;;;;5091248;28;20031;-81
2021/06/19 00:13:52;;;;;;;16.77;10.93;;;21.80;99.90;;;;;;5097073;28;20392;-81
2021/06/19 00:16:22;;;;;;;15.88;11.15;;;21.80;99.90;;;;;;5083368;28;20092;-79
2021/06/19 00:18:47;;;;;;;14.40;8.57;;;21.90;99.90;;;;;;5087379;28;20020;-82
2021/06/19 00:21:13;;;;;;;20.80;9.38;;;22.00;99.90;;;;;;5082416;28;20357;-81
2021/06/19 00:23:38;;;;;;;17.73;7.47;;;22.00;99.90;;;;;;5095302;28;20043;-80
2021/06/19 00:26:04;;;;;;;10.82;7.07;;;22.10;99.90;;;;;;5082015;28;20389;-82
2021/06/19 00:28:30;;;;;;;13.45;7.38;;;22.10;99.90;;;;;;5080897;28;20036;-81
2021/06/19 00:30:55;;;;;;;12.70;7.38;;;22.10;99.90;;;;;;5100295;28;20079;-80
2021/06/19 00:33:21;;;;;;;9.93;7.00;;;22.20;99.90;;;;;;5080327;28;20016;-80
2021/06/19 00:35:46;;;;;;;8.40;6.88;;;22.10;99.90;;;;;;5078470;28;20043;-82
2021/06/19 00:38:12;;;;;;;8.32;6.25;;;22.10;99.90;;;;;;5101969;28;20167;-80
2021/06/19 00:40:38;;;;;;;15.98;6.35;;;22.20;99.90;;;;;;5102705;28;20024;-79
2021/06/19 00:43:04;;;;;;;15.55;6.50;;;22.20;99.90;;;;;;5083193;28;20020;-80
2021/06/19 00:45:32;;;;;;;7.95;5.78;;;22.20;99.90;;;;;;5089822;28;20028;-80
2021/06/19 00:47:58;;;;;;;8.27;5.57;;;22.20;99.90;;;;;;5081010;28;21203;-78
2021/06/19 00:50:26;;;;;;;8.75;5.85;;;22.20;99.90;;;;;;5080722;28;20503;-83
2021/06/19 00:52:53;;;;;;;9.23;5.70;;;22.10;99.90;;;;;;5086065;28;20051;-79
2021/06/19 00:55:19;;;;;;;12.77;6.10;;;22.10;99.90;;;;;;5080450;28;20111;-82
2021/06/19 00:57:46;;;;;;;6.80;4.90;;;22.10;99.90;;;;;;5078504;28;20024;-78
2021/06/19 01:00:13;;;;;;;6.85;5.07;;;22.10;99.90;;;;;;5086107;28;20039;-78
2021/06/19 01:02:39;;;;;;;7.93;5.20;;;22.00;99.90;;;;;;5084047;28;20048;-82
2021/06/19 01:05:08;;;;;;;10.32;5.57;;;22.00;99.90;;;;;;5088071;28;20032;-81
2021/06/19 01:07:34;;;;;;;7.88;4.95;;;22.00;99.90;;;;;;5080794;28;20085;-79
2021/06/19 01:09:59;;;;;;;6.10;5.50;;;22.00;99.90;;;;;;5078728;28;20422;-79
2021/06/19 01:12:26;;;;;;;6.30;5.00;;;22.00;99.90;;;;;;5087135;28;20031;-80
2021/06/19 01:14:53;;;;;;;6.57;4.72;;;22.00;99.90;;;;;;5085672;28;20476;-80
2021/06/19 01:17:20;;;;;;;5.03;4.40;;;22.00;99.90;;;;;;5081370;28;20067;-79
2021/06/19 01:20:06;;;;;;;7.35;5.00;;;22.00;99.90;;;;;;5076503;28;20020;-81
2021/06/19 01:22:33;;;;;;;6.70;6.10;;;21.90;99.90;;;;;;5079244;28;20036;-80
2021/06/19 01:25:04;;;;;;;8.38;5.68;;;21.90;99.90;;;;;;5080128;28;20038;-80
2021/06/19 01:27:31;;;;;;;9.32;6.97;;;21.90;99.90;;;;;;5077894;28;20036;-80
2021/06/19 01:29:58;;;;;;;9.65;7.78;;;21.80;99.90;;;;;;5075201;28;20062;-80
2021/06/19 01:32:31;;;;;;;12.60;9.90;;;21.80;99.90;;;;;;5078220;28;20437;-79
2021/06/19 01:34:56;;;;;;;12.32;9.52;;;21.70;99.90;;;;;;5077962;28;20024;-79
2021/06/19 01:37:22;;;;;;;10.40;8.63;;;21.70;99.90;;;;;;5078508;28;20020;-80
2021/06/19 01:39:48;;;;;;;18.70;10.18;;;21.60;99.90;;;;;;5077305;28;20362;-82
2021/06/19 01:42:13;;;;;;;15.75;12.23;;;21.60;99.90;;;;;;5073608;28;20040;-81
2021/06/19 01:44:40;;;;;;;15.13;10.52;;;21.60;99.90;;;;;;5075367;28;20415;-82
2021/06/19 01:47:06;;;;;;;16.23;11.20;;;21.60;99.90;;;;;;5079243;28;20081;-79
2021/06/19 01:49:36;;;;;;;16.20;10.90;;;21.50;99.90;;;;;;5074086;28;20069;-81
2021/06/19 01:52:04;;;;;;;20.42;12.30;;;21.50;99.90;;;;;;5080413;28;20055;-82
2021/06/19 01:54:38;;;;;;;14.70;10.32;;;21.50;99.90;;;;;;5083844;28;20396;-83
2021/06/19 01:57:05;;;;;;;12.30;9.75;;;21.50;99.90;;;;;;5061066;28;20120;-83
2021/06/19 01:59:31;;;;;;;15.30;10.38;;;21.50;99.90;;;;;;5076761;28;20028;-82
2021/06/19 02:01:59;;;;;;;13.43;9.32;;;21.50;99.90;;;;;;5078043;28;20169;-83
2021/06/19 02:04:25;;;;;;;12.32;9.10;;;21.50;99.90;;;;;;5082514;28;20063;-83
2021/06/19 02:06:51;;;;;;;12.30;9.35;;;21.50;99.90;;;;;;5081565;28;20099;-82
2021/06/19 02:09:17;;;;;;;9.98;8.60;;;21.50;99.90;;;;;;5075388;28;20051;-83
2021/06/19 02:11:42;;;;;;;14.50;8.30;;;21.50;99.90;;;;;;5071133;28;20024;-83
2021/06/19 02:14:08;;;;;;;8.80;7.43;;;21.50;99.90;;;;;;5083190;28;20031;-82
2021/06/19 02:16:34;;;;;;;8.40;7.38;;;21.50;99.90;;;;;;5082960;28;20028;-81
2021/06/19 02:19:00;;;;;;;8.07;6.20;;;21.40;99.90;;;;;;5070833;28;20512;-84
2021/06/19 02:21:25;;;;;;;12.38;6.03;;;21.40;99.90;;;;;;5069344;28;20037;-78
2021/06/19 02:23:51;;;;;;;8.02;5.38;;;21.40;99.90;;;;;;5071414;28;20060;-82
2021/06/19 02:26:17;;;;;;;19.52;7.47;;;21.40;99.90;;;;;;5077777;28;20020;-82
2021/06/19 02:28:43;;;;;;;7.70;5.90;;;21.40;99.90;;;;;;5076755;28;20528;-77
2021/06/19 02:31:08;;;;;;;7.78;5.82;;;21.50;99.90;;;;;;5080403;28;20473;-81
2021/06/19 02:33:34;;;;;;;7.43;5.57;;;21.40;99.90;;;;;;5078718;28;20104;-82
2021/06/19 02:36:00;;;;;;;7.78;6.05;;;21.30;99.90;;;;;;5082990;28;20476;-82
2021/06/19 02:38:26;;;;;;;10.07;6.65;;;21.30;99.90;;;;;;5078171;28;20384;-82
2021/06/19 02:40:52;;;;;;;18.75;11.77;;;21.20;99.90;;;;;;5083398;28;20066;-81
2021/06/19 02:43:19;;;;;;;24.98;14.18;;;21.10;99.90;;;;;;5082734;28;20389;-78
2021/06/19 02:45:46;;;;;;;26.40;16.13;;;21.10;99.90;;;;;;5071223;28;20032;-82
2021/06/19 02:48:11;;;;;;;26.73;16.38;;;21.10;99.90;;;;;;5084559;28;20016;-81
2021/06/19 02:50:40;;;;;;;22.30;16.13;;;21.10;99.90;;;;;;5086831;28;20065;-78
2021/06/19 02:53:07;;;;;;;25.33;17.23;;;21.00;99.90;;;;;;5080233;28;20017;-81
2021/06/19 02:55:35;;;;;;;30.73;19.05;;;21.00;99.90;;;;;;5085113;28;20039;-79
2021/06/19 02:58:04;;;;;;;30.25;20.23;;;21.00;99.90;;;;;;5081864;28;20020;-80
2021/06/19 03:00:29;;;;;;;31.30;20.38;;;20.90;99.90;;;;;;5082320;28;20045;-80
2021/06/19 03:02:55;;;;;;;32.90;19.70;;;20.90;99.90;;;;;;5078806;28;20127;-80
2021/06/19 03:05:35;;;;;;;34.53;19.63;;;20.90;99.90;;;;;;5081274;28;20039;-81
2021/06/19 03:08:01;;;;;;;28.73;17.77;;;20.90;99.90;;;;;;5080740;28;20033;-79
2021/06/19 03:10:32;;;;;;;32.85;20.15;;;20.90;99.90;;;;;;5080296;28;20020;-77
2021/06/19 03:12:59;;;;;;;34.00;22.25;;;20.90;99.90;;;;;;5092604;28;20016;-78
2021/06/19 03:15:25;;;;;;;33.47;21.60;;;20.90;99.90;;;;;;5078105;28;20052;-82
2021/06/19 03:17:51;;;;;;;36.75;22.85;;;20.90;99.90;;;;;;5078110;28;20055;-81
2021/06/19 03:20:18;;;;;;;39.58;23.48;;;20.80;99.90;;;;;;5084714;28;20020;-82
2021/06/19 03:22:48;;;;;;;45.97;25.55;;;20.60;99.90;;;;;;5075806;28;20020;-81
2021/06/19 03:25:16;;;;;;;48.67;27.42;;;20.50;99.90;;;;;;5082101;28;20028;-79
2021/06/19 03:27:43;;;;;;;49.17;27.20;;;20.40;99.90;;;;;;5072775;28;20016;-82
2021/06/19 03:30:09;;;;;;;48.05;25.98;;;20.30;99.90;;;;;;5074056;28;20396;-82
2021/06/19 03:32:38;;;;;;;48.15;27.25;;;20.30;99.90;;;;;;5077400;28;20017;-83
2021/06/19 03:35:05;;;;;;;53.00;26.23;;;20.20;99.90;;;;;;5081386;28;20464;-83
2021/06/19 03:37:31;;;;;;;47.55;27.35;;;20.20;99.90;;;;;;5094747;28;20417;-82
2021/06/19 03:39:57;;;;;;;53.15;27.30;;;20.20;99.90;;;;;;5081324;28;20035;-81
2021/06/19 03:42:22;;;;;;;51.17;27.48;;;20.10;99.90;;;;;;5077882;28;20047;-81
2021/06/19 03:44:48;;;;;;;52.40;26.73;;;20.10;99.90;;;;;;5077588;28;20031;-81
2021/06/19 03:47:14;;;;;;;51.78;27.98;;;20.00;99.90;;;;;;5080114;28;20041;-82
2021/06/19 03:49:39;;;;;;;50.55;27.73;;;20.00;99.90;;;;;;5074744;28;20362;-80
2021/06/19 03:52:05;;;;;;;51.38;26.17;;;20.00;99.90;;;;;;5078035;28;20017;-81
2021/06/19 03:54:31;;;;;;;53.42;28.65;;;19.90;99.90;;;;;;5092011;28;20035;-82
2021/06/19 03:56:56;;;;;;;51.75;26.98;;;20.00;99.90;;;;;;5087159;28;20032;-82
2021/06/19 03:59:22;;;;;;;50.90;25.73;;;19.90;99.90;;;;;;5086953;28;20392;-82
2021/06/19 04:01:48;;;;;;;51.08;27.80;;;19.90;99.90;;;;;;5082408;28;20021;-79
2021/06/19 04:04:13;;;;;;;61.30;30.20;;;19.90;99.90;;;;;;5075645;28;20123;-78
2021/06/19 04:06:39;;;;;;;60.65;31.80;;;19.90;99.90;;;;;;5087925;28;20020;-84
2021/06/19 04:09:05;;;;;;;61.53;29.65;;;20.00;99.90;;;;;;5085097;28;20044;-84
2021/06/19 04:11:30;;;;;;;61.08;29.92;;;19.90;99.90;;;;;;5075335;28;20028;-83
2021/06/19 04:13:56;;;;;;;66.07;30.88;;;19.90;99.90;;;;;;5076636;28;20047;-84
2021/06/19 04:16:21;;;;;;;59.22;30.23;;;19.90;99.90;;;;;;5080504;28;20233;-83
2021/06/19 04:18:47;;;;;;;62.33;30.63;;;19.80;99.90;;;;;;5075722;28;20029;-83
2021/06/19 04:21:12;;;;;;;66.10;31.75;;;19.80;99.90;;;;;;5074091;28;20117;-81
2021/06/19 04:23:38;;;;;;;62.65;30.58;;;19.80;99.90;;;;;;5079494;28;20032;-82
2021/06/19 04:26:04;;;;;;;72.80;34.38;;;19.70;99.90;;;;;;5080116;28;20393;-83
2021/06/19 04:28:30;;;;;;;67.53;32.30;;;19.70;99.90;;;;;;5082052;28;20069;-82
2021/06/19 04:30:59;;;;;;;70.60;33.43;;;19.70;99.90;;;;;;5085388;28;20530;-82
2021/06/19 04:33:25;;;;;;;74.97;33.92;;;19.70;99.90;;;;;;5086748;28;20025;-82
2021/06/19 04:35:51;;;;;;;75.82;33.63;;;19.60;99.90;;;;;;5081610;28;20024;-79
2021/06/19 04:38:17;;;;;;;68.60;32.88;;;19.60;99.90;;;;;;5085918;28;20035;-82
2021/06/19 04:40:57;;;;;;;71.63;32.13;;;19.60;99.90;;;;;;5079722;28;20028;-82
2021/06/19 04:43:33;;;;;;;69.60;33.10;;;19.70;99.90;;;;;;5081995;28;20044;-82
2021/06/19 04:45:59;;;;;;;70.70;32.60;;;19.70;99.90;;;;;;5078104;28;20028;-82
2021/06/19 04:48:24;;;;;;;64.00;30.33;;;19.80;99.90;;;;;;5075205;28;20027;-83
2021/06/19 04:50:52;;;;;;;55.80;28.30;;;19.80;99.90;;;;;;5077288;28;20028;-79
2021/06/19 04:53:18;;;;;;;63.65;29.33;;;19.90;99.90;;;;;;5072551;28;20097;-80
2021/06/19 04:55:44;;;;;;;64.47;30.17;;;19.90;99.90;;;;;;5078030;28;20476;-81
2021/06/19 04:58:09;;;;;;;58.95;28.10;;;19.80;99.90;;;;;;5077566;28;20028;-78
2021/06/19 05:00:37;;;;;;;58.65;27.38;;;19.80;99.90;;;;;;5078272;28;20043;-81
2021/06/19 05:03:06;;;;;;;58.97;26.92;;;19.90;99.90;;;;;;5072667;28;20484;-80
2021/06/19 05:05:32;;;;;;;52.45;25.17;;;19.90;99.90;;;;;;5075191;28;20037;-81
2021/06/19 05:07:58;;;;;;;50.50;26.67;;;19.90;99.90;;;;;;5080772;28;20024;-77
2021/06/19 05:10:24;;;;;;;55.38;25.45;;;19.90;99.90;;;;;;5082450;28;20028;-82
2021/06/19 05:12:50;;;;;;;47.58;23.52;;;19.90;99.90;;;;;;5083384;28;20023;-82
2021/06/19 05:15:18;;;;;;;52.35;23.33;;;20.00;99.90;;;;;;5084300;28;20024;-84
2021/06/19 05:17:44;;;;;;;42.10;21.52;;;20.00;99.90;;;;;;5086538;28;20037;-82
2021/06/19 05:20:10;;;;;;;43.17;20.33;;;20.00;99.90;;;;;;5075709;28;20392;-81
2021/06/19 05:22:37;;;;;;;37.67;21.15;;;20.00;99.90;;;;;;5075008;28;20485;-77
2021/06/19 05:25:05;;;;;;;36.40;20.90;;;20.00;99.90;;;;;;5091793;28;20050;-81
2021/06/19 05:27:31;;;;;;;;;;;20.00;99.90;;;;;;5075365;28;20766;-79
2021/06/19 05:29:56;;;;;;;32.33;19.08;;;20.10;99.90;;;;;;5077456;28;19958;-82
2021/06/19 05:32:25;;;;;;;37.08;20.00;;;20.10;99.90;;;;;;5084015;28;20444;-80
2021/06/19 05:34:51;;;;;;;36.65;20.13;;;20.10;99.90;;;;;;5076209;28;20025;-80
2021/06/19 05:37:19;;;;;;;38.70;20.30;;;20.10;99.90;;;;;;5074530;28;20115;-83
2021/06/19 05:39:45;;;;;;;37.63;20.33;;;20.00;99.90;;;;;;5076902;28;20480;-79
2021/06/19 05:42:10;;;;;;;40.25;20.77;;;19.90;99.90;;;;;;5074436;28;20035;-79
2021/06/19 05:44:36;;;;;;;37.15;19.83;;;20.00;99.90;;;;;;5079169;28;20097;-81
2021/06/19 05:47:02;;;;;;;35.95;19.67;;;20.00;99.90;;;;;;5073699;28;20032;-77
2021/06/19 05:49:27;;;;;;;34.28;19.60;;;20.00;99.90;;;;;;5078622;28;20380;-79
2021/06/19 05:51:53;;;;;;;41.88;21.92;;;20.10;99.90;;;;;;5078342;28;20024;-78
2021/06/19 05:54:19;;;;;;;38.15;20.50;;;20.00;99.90;;;;;;5084961;28;20060;-80
2021/06/19 05:56:45;;;;;;;36.85;18.95;;;20.00;99.90;;;;;;5093094;28;20024;-80
2021/06/19 05:59:10;;;;;;;29.40;17.17;;;20.00;99.90;;;;;;5085066;28;20028;-77
2021/06/19 06:01:36;;;;;;;25.08;13.77;;;20.00;99.90;;;;;;5090139;28;20028;-82
2021/06/19 06:04:01;;;;;;;23.77;12.63;;;20.00;99.90;;;;;;5090586;28;20032;-78
2021/06/19 06:06:27;;;;;;;18.30;12.05;;;19.90;99.90;;;;;;5075089;28;20397;-82
2021/06/19 06:08:53;;;;;;;18.73;11.50;;;20.00;99.90;;;;;;5078315;28;20032;-82
2021/06/19 06:11:19;;;;;;;16.48;10.18;;;20.00;99.90;;;;;;5074068;28;20054;-81
2021/06/19 06:13:45;;;;;;;22.88;11.73;;;20.00;99.90;;;;;;5072825;28;20020;-79
2021/06/19 06:16:11;;;;;;;17.65;10.95;;;20.10;99.90;;;;;;5078763;28;20108;-81
2021/06/19 06:18:38;;;;;;;16.13;10.50;;;20.00;99.90;;;;;;5080440;28;20025;-85
2021/06/19 06:21:04;;;;;;;12.90;7.73;;;20.10;99.90;;;;;;5087137;28;20484;-83
2021/06/19 06:23:30;;;;;;;17.42;10.35;;;20.00;99.90;;;;;;5087626;28;20062;-79
2021/06/19 06:25:56;;;;;;;19.60;10.50;;;20.00;99.90;;;;;;5084861;28;20115;-84
2021/06/19 06:28:22;;;;;;;16.55;10.70;;;19.90;99.90;;;;;;5081446;28;20056;-79
2021/06/19 06:30:49;;;;;;;17.63;10.88;;;19.90;99.90;;;;;;5085077;28;20067;-84
2021/06/19 06:33:15;;;;;;;15.55;9.90;;;19.80;99.90;;;;;;5085245;28;20076;-82
2021/06/19 06:35:40;;;;;;;14.93;9.73;;;19.80;99.90;;;;;;5083969;28;20181;-83
2021/06/19 06:38:06;;;;;;;19.85;9.73;;;19.90;99.90;;;;;;5075621;28;20112;-84
2021/06/19 06:40:32;;;;;;;14.43;10.13;;;19.80;99.90;;;;;;5082358;28;20028;-84
2021/06/19 06:42:59;;;;;;;18.08;11.10;;;20.00;99.90;;;;;;5081375;28;20024;-85
2021/06/19 06:45:26;;;;;;;14.63;9.93;;;19.90;99.90;;;;;;5075235;28;20473;-80
2021/06/19 06:47:52;;;;;;;13.43;10.18;;;19.90;99.90;;;;;;5075495;28;20571;-85
2021/06/19 06:50:18;;;;;;;16.17;9.48;;;19.90;99.90;;;;;;5073629;28;20052;-84
2021/06/19 06:52:44;;;;;;;10.20;7.57;;;19.90;99.90;;;;;;5074624;28;20043;-85
2021/06/19 06:55:11;;;;;;;10.55;8.10;;;19.90;99.90;;;;;;5087417;28;20049;-83
2021/06/19 06:57:37;;;;;;;9.27;7.53;;;19.80;99.90;;;;;;5088226;28;20472;-85
2021/06/19 07:00:04;;;;;;;11.10;7.60;;;19.80;99.90;;;;;;5081464;28;20047;-80
2021/06/19 07:02:31;;;;;;;9.77;7.32;;;19.80;99.90;;;;;;5079188;28;20058;-83
2021/06/19 07:04:57;;;;;;;12.48;6.53;;;19.80;99.90;;;;;;5078698;28;20027;-84
2021/06/19 07:07:22;;;;;;;10.48;7.15;;;19.80;99.90;;;;;;5078106;28;20127;-84
2021/06/19 07:09:48;;;;;;;7.80;6.45;;;19.80;99.90;;;;;;5078874;28;20467;-82
2021/06/19 07:12:14;;;;;;;11.45;7.78;;;19.80;99.90;;;;;;5073455;28;20021;-81
2021/06/19 07:14:39;;;;;;;12.18;8.65;;;19.80;99.90;;;;;;5074326;28;20056;-81
2021/06/19 07:17:08;;;;;;;11.73;7.45;;;19.90;99.90;;;;;;5089326;28;20018;-79
2021/06/19 07:19:34;;;;;;;12.07;8.23;;;19.90;99.90;;;;;;5088652;28;20005;-83
2021/06/19 07:22:00;;;;;;;11.95;8.30;;;19.90;99.90;;;;;;5092468;28;20020;-83
2021/06/19 07:24:25;;;;;;;11.18;8.07;;;19.90;99.90;;;;;;5088516;28;20040;-82
2021/06/19 07:26:51;;;;;;;9.60;7.68;;;19.80;99.90;;;;;;5089418;28;20025;-83
2021/06/19 07:29:17;;;;;;;14.32;8.23;;;19.80;99.90;;;;;;5091548;28;20040;-80
2021/06/19 07:31:43;;;;;;;11.15;8.70;;;19.90;99.90;;;;;;5094914;28;20040;-81
2021/06/19 07:34:08;;;;;;;17.02;9.27;;;19.90;99.90;;;;;;5091896;28;20726;-83
2021/06/19 07:36:35;;;;;;;12.68;9.13;;;19.80;99.90;;;;;;5093712;28;20076;-83
2021/06/19 07:39:01;;;;;;;14.27;9.80;;;19.90;99.90;;;;;;5109779;28;20033;-84
2021/06/19 07:41:26;;;;;;;13.45;10.30;;;19.90;99.90;;;;;;5105607;28;20039;-82
2021/06/19 07:43:53;;;;;;;14.45;10.10;;;20.00;99.90;;;;;;5107963;28;20040;-81
2021/06/19 07:46:18;;;;;;;13.85;9.88;;;20.00;99.90;;;;;;5102947;28;20028;-80
2021/06/19 07:48:44;;;;;;;15.23;9.40;;;20.10;99.90;;;;;;5100184;28;20032;-85
2021/06/19 07:51:10;;;;;;;14.98;10.32;;;20.20;99.90;;;;;;5100008;28;20050;-77
2021/06/19 07:53:35;;;;;;;12.25;9.02;;;20.20;99.90;;;;;;5105722;28;20054;-82
2021/06/19 07:56:01;;;;;;;16.65;9.65;;;20.30;99.90;;;;;;5099683;28;20032;-83
2021/06/19 07:58:27;;;;;;;15.00;9.77;;;20.20;99.90;;;;;;5100546;28;20016;-82
2021/06/19 08:00:52;;;;;;;15.00;8.65;;;20.20;99.90;;;;;;5103270;28;20028;-81
2021/06/19 08:03:18;;;;;;;10.85;8.48;;;20.20;99.90;;;;;;5089588;28;20035;-80
2021/06/19 08:05:44;;;;;;;15.00;9.27;;;20.30;99.90;;;;;;5093404;28;20055;-83
2021/06/19 08:08:09;;;;;;;12.00;8.88;;;20.30;99.90;;;;;;5094539;28;20028;-79
2021/06/19 08:10:35;;;;;;;12.88;8.98;;;20.30;99.90;;;;;;5089388;28;20033;-80
2021/06/19 08:13:01;;;;;;;12.55;7.53;;;20.30;99.90;;;;;;5094945;28;20028;-83
2021/06/19 08:15:27;;;;;;;8.93;7.97;;;20.30;99.90;;;;;;5094404;28;20029;-81
2021/06/19 08:17:52;;;;;;;11.05;7.30;;;20.40;99.90;;;;;;5074656;28;20045;-83
2021/06/19 08:20:19;;;;;;;9.50;6.80;;;20.50;99.90;;;;;;5074402;28;20237;-85
2021/06/19 08:22:44;;;;;;;6.30;5.70;;;20.50;99.90;;;;;;5066566;28;20066;-79
2021/06/19 08:25:11;;;;;;;5.90;5.30;;;20.60;99.90;;;;;;5078698;28;20465;-82
2021/06/19 08:27:37;;;;;;;4.63;4.20;;;20.50;99.90;;;;;;5085387;28;20028;-84
2021/06/19 08:30:07;;;;;;;9.30;4.35;;;20.60;99.90;;;;;;5081607;28;20162;-82
2021/06/19 08:32:32;;;;;;;6.60;4.53;;;20.60;99.90;;;;;;5077855;28;20098;-83
2021/06/19 08:34:58;;;;;;;4.82;3.85;;;20.50;99.90;;;;;;5078413;28;20020;-85
2021/06/19 08:37:24;;;;;;;4.82;4.18;;;20.40;99.90;;;;;;5090584;28;20055;-85
2021/06/19 08:39:49;;;;;;;4.18;3.88;;;20.40;99.90;;;;;;5089881;28;20052;-82
2021/06/19 08:42:21;;;;;;;4.40;4.00;;;20.40;99.90;;;;;;5071387;28;20082;-82
2021/06/19 08:44:47;;;;;;;6.47;4.30;;;20.30;99.90;;;;;;5073172;28;20473;-84
2021/06/19 08:47:13;;;;;;;3.80;3.50;;;20.10;99.90;;;;;;5077579;28;20074;-83
2021/06/19 08:49:39;;;;;;;4.60;4.20;;;19.90;99.90;;;;;;5080579;28;20020;-81
2021/06/19 08:52:05;;;;;;;5.80;4.72;;;19.80;99.90;;;;;;5075816;28;20027;-84
2021/06/19 08:54:40;;;;;;;4.00;3.70;;;19.70;99.90;;;;;;5070781;28;20032;-83
2021/06/19 08:57:11;;;;;;;4.22;3.05;;;19.70;99.90;;;;;;5081305;28;20385;-82
2021/06/19 08:59:38;;;;;;;3.97;3.67;;;19.80;99.90;;;;;;5080619;28;20036;-80
2021/06/19 09:02:08;;;;;;;3.93;3.63;;;19.90;99.90;;;;;;5070309;28;20075;-84
2021/06/19 09:05:07;;;;;;;2.83;2.63;;;19.90;99.90;;;;;;5071440;28;20417;-84
2021/06/19 09:07:49;;;;;;;4.13;3.80;;;20.00;99.90;;;;;;5085431;28;20028;-82
2021/06/19 09:10:21;;;;;;;4.47;4.07;;;20.00;99.90;;;;;;5059980;28;20026;-84
2021/06/19 09:15:49;;;;;;;5.50;5.00;;;19.70;99.90;;;;;;5071228;28;20063;-83
2021/06/19 09:18:31;;;;;;;5.38;4.88;;;19.40;99.90;;;;;;5071108;28;20476;-84
2021/06/19 09:21:03;;;;;;;6.82;5.90;;;19.30;99.90;;;;;;5093479;28;20060;-84
2021/06/19 09:23:44;;;;;;;5.97;5.25;;;19.10;99.90;;;;;;5088332;28;20088;-83
2021/06/19 09:26:19;;;;;;;6.18;5.47;;;19.10;99.90;;;;;;5084868;28;20021;-82
2021/06/19 09:29:15;;;;;;;6.22;5.05;;;19.10;99.90;;;;;;5086978;28;20513;-84
2021/06/19 09:31:49;;;;;;;27.48;9.20;;;19.10;99.90;;;;;;5090000;28;20550;-84
2021/06/19 09:34:24;;;;;;;6.38;5.78;;;19.10;99.90;;;;;;5085356;28;20024;-84
2021/06/19 09:36:58;;;;;;;20.95;8.18;;;19.20;99.90;;;;;;5085117;28;20107;-83
2021/06/19 09:39:29;;;;;;;16.35;7.10;;;19.20;99.90;;;;;;5083950;28;20035;-85
2021/06/19 09:42:03;;;;;;;8.32;6.30;;;19.30;99.90;;;;;;5088865;28;20173;-84
2021/06/19 09:44:44;;;;;;;7.03;6.28;;;19.30;99.90;;;;;;5079262;28;20107;-84
2021/06/19 09:47:12;;;;;;;8.30;6.22;;;19.30;99.90;;;;;;5080772;28;20016;-83
2021/06/19 09:49:40;;;;;;;11.65;6.82;;;19.30;99.90;;;;;;5083358;28;20394;-84
2021/06/19 09:52:06;;;;;;;17.05;7.97;;;19.10;99.90;;;;;;5086345;28;20020;-81
2021/06/19 09:54:43;;;;;;;11.65;7.90;;;18.90;99.90;;;;;;5077187;28;20485;-82
2021/06/19 09:57:16;;;;;;;9.98;8.52;;;18.70;99.90;;;;;;5075524;28;20032;-81
2021/06/19 09:59:43;;;;;;;12.02;8.93;;;18.60;99.90;;;;;;5076832;28;20466;-81
2021/06/19 10:02:20;;;;;;;12.68;9.63;;;18.30;99.90;;;;;;5079332;28;20051;-82
2021/06/19 10:04:55;;;;;;;11.40;9.63;;;18.20;99.90;;;;;;5082010;28;20072;-82
2021/06/19 10:07:22;;;;;;;8.60;7.60;;;18.10;99.90;;;;;;5091214;28;20019;-82
2021/06/19 10:09:53;;;;;;;23.33;7.75;;;18.30;99.90;;;;;;5094236;28;20388;-82
2021/06/19 10:12:39;;;;;;;14.00;9.77;;;18.50;99.90;;;;;;5093063;28;20036;-82
2021/06/19 10:15:07;;;;;;;13.68;8.85;;;18.50;99.90;;;;;;5093659;28;20053;-76
2021/06/19 10:17:38;;;;;;;13.60;8.27;;;18.40;99.90;;;;;;5083412;28;20029;-80
2021/06/19 10:20:08;;;;;;;8.63;7.72;;;18.40;99.90;;;;;;5085967;28;20027;-79
2021/06/19 10:22:36;;;;;;;17.38;8.07;;;18.70;99.90;;;;;;5074963;28;20504;-81
2021/06/19 10:25:09;;;;;;;15.13;8.25;;;18.90;99.90;;;;;;5057243;28;20033;-80
2021/06/19 10:27:37;;;;;;;11.35;8.65;;;19.00;99.90;;;;;;5054172;28;20056;-77
2021/06/19 10:30:05;;;;;;;14.55;9.10;;;19.20;99.90;;;;;;5054178;28;20469;-77
2021/06/19 10:32:41;;;;;;;10.20;8.25;;;19.30;99.90;;;;;;5087498;28;20017;-77
2021/06/19 10:35:07;;;;;;;10.07;9.02;;;19.40;99.90;;;;;;5074221;28;20038;-81
2021/06/19 10:37:33;;;;;;;11.70;8.63;;;19.30;99.90;;;;;;5074785;28;20024;-79
2021/06/19 10:40:15;;;;;;;10.55;8.93;;;19.30;99.90;;;;;;5078054;28;20034;-77
2021/06/19 10:42:41;;;;;;;12.00;8.32;;;19.50;99.90;;;;;;5069187;28;20038;-75
2021/06/19 10:45:20;;;;;;;13.27;9.32;;;19.50;99.90;;;;;;5083715;28;20074;-76
2021/06/19 10:48:07;;;;;;;11.73;8.52;;;19.50;99.90;;;;;;5070906;28;20012;-75
2021/06/19 10:50:34;;;;;;;12.02;8.57;;;19.50;99.90;;;;;;5092091;28;20388;-79
2021/06/19 10:53:14;;;;;;;10.45;8.30;;;19.40;99.90;;;;;;5070942;28;20032;-74
2021/06/19 10:55:43;;;;;;;11.70;9.38;;;19.40;99.90;;;;;;5080304;28;20029;-78
2021/06/19 10:58:28;;;;;;;13.80;8.52;;;19.30;99.90;;;;;;5080145;28;20032;-77
2021/06/19 11:00:57;;;;;;;11.73;8.85;;;19.30;99.90;;;;;;5098644;28;20043;-77
2021/06/19 11:03:48;;;;;;;12.63;9.05;;;19.30;99.90;;;;;;5081317;28;20070;-76
2021/06/19 11:06:22;;;;;;;13.43;8.57;;;19.40;99.90;;;;;;5053543;28;20068;-81
2021/06/19 11:09:16;;;;;;;12.18;8.48;;;19.40;99.90;;;;;;5053796;28;20100;-81
2021/06/19 11:11:59;;;;;;;14.63;8.43;;;19.40;99.90;;;;;;5077982;28;20025;-77
2021/06/19 11:14:47;;;;;;;11.35;8.23;;;19.60;99.90;;;;;;5064274;28;20094;-78
2021/06/19 11:17:21;;;;;;;11.88;7.53;;;19.60;99.90;;;;;;5088966;28;20396;-77
2021/06/19 11:19:55;;;;;;;10.57;8.35;;;19.60;99.90;;;;;;5089188;28;20477;-77
2021/06/19 11:22:24;;;;;;;12.70;8.40;;;19.50;99.90;;;;;;5094725;28;20058;-76
2021/06/19 11:25:11;;;;;;;12.02;9.30;;;19.50;99.90;;;;;;5093611;28;20024;-77
2021/06/19 11:27:55;;;;;;;10.88;9.45;;;19.60;99.90;;;;;;5073278;28;20067;-77
2021/06/19 11:30:43;;;;;;;11.02;9.05;;;19.70;99.90;;;;;;5071884;28;20037;-77
2021/06/19 11:33:19;;;;;;;10.95;9.00;;;19.60;99.90;;;;;;5072921;28;20025;-76
2021/06/19 11:35:49;;;;;;;21.73;9.23;;;19.60;99.90;;;;;;5089499;28;20029;-77
2021/06/19 11:38:15;;;;;;;11.45;9.52;;;19.50;99.90;;;;;;5077332;28;20055;-77
2021/06/19 11:40:42;;;;;;;11.50;9.80;;;19.30;99.90;;;;;;5075664;28;20033;-77
2021/06/19 11:43:09;;;;;;;10.27;8.60;;;19.10;99.90;;;;;;5077475;28;20131;-77
2021/06/19 11:45:36;;;;;;;11.73;9.65;;;19.10;99.90;;;;;;5067811;28;20078;-77
2021/06/19 11:48:15;;;;;;;10.35;9.05;;;19.30;99.90;;;;;;5072857;28;20037;-77
2021/06/19 11:50:43;;;;;;;10.73;8.52;;;19.50;99.90;;;;;;5074220;28;20374;-77
2021/06/19 11:53:38;;;;;;;11.65;9.48;;;19.60;99.90;;;;;;5084622;28;20099;-76
2021/06/19 11:56:14;;;;;;;14.27;9.38;;;19.70;99.90;;;;;;5093173;28;20124;-77
2021/06/19 11:59:01;;;;;;;9.80;8.60;;;19.80;99.90;;;;;;5091027;28;20033;-77
2021/06/19 12:01:33;;;;;;;15.27;8.48;;;19.90;99.90;;;;;;5079894;28;20464;-77
2021/06/19 12:04:01;;;;;;;12.80;7.50;;;19.90;99.90;;;;;;5073120;28;20037;-77
2021/06/19 12:06:37;;;;;;;12.13;8.52;;;19.90;99.90;;;;;;5075497;28;20040;-77
2021/06/19 12:09:04;;;;;;;11.68;8.43;;;19.70;99.90;;;;;;5071699;28;20039;-77
2021/06/19 12:11:33;;;;;;;12.85;9.40;;;19.60;99.90;;;;;;5089871;28;20032;-78
2021/06/19 12:14:00;;;;;;;16.23;9.18;;;19.30;99.90;;;;;;5075928;28;20118;-77
2021/06/19 12:16:31;;;;;;;14.73;9.50;;;19.00;99.90;;;;;;5076346;28;20138;-76
2021/06/19 12:19:01;;;;;;;13.93;8.75;;;18.80;99.90;;;;;;5075525;28;20127;-77
2021/06/19 12:21:34;;;;;;;14.10;9.15;;;18.80;99.90;;;;;;5076647;28;20100;-76
2021/06/19 12:24:02;;;;;;;16.23;10.00;;;18.80;99.90;;;;;;5076960;28;20024;-77
2021/06/19 12:26:28;;;;;;;11.90;9.00;;;18.60;99.90;;;;;;5092085;28;20065;-77
2021/06/19 12:28:54;;;;;;;12.38;9.55;;;18.70;99.90;;;;;;5095104;28;20016;-77
2021/06/19 12:31:23;;;;;;;15.23;10.00;;;18.80;99.90;;;;;;5095343;28;20422;-77
2021/06/19 12:34:02;;;;;;;11.93;8.73;;;18.80;99.90;;;;;;5095191;28;20036;-76
2021/06/19 12:36:29;;;;;;;12.25;9.13;;;18.90;99.90;;;;;;5096621;28;20032;-77
2021/06/19 12:38:55;;;;;;;13.50;9.35;;;19.10;99.90;;;;;;5096286;28;20026;-77
2021/06/19 12:41:21;;;;;;;12.48;9.77;;;19.20;99.90;;;;;;5095614;28;20028;-77
2021/06/19 12:43:51;;;;;;;14.23;11.65;;;19.30;99.90;;;;;;5079341;28;20028;-76
2021/06/19 12:46:19;;;;;;;13.35;9.98;;;19.30;99.90;;;;;;5074873;28;20029;-77